createdAt,value
2018-09-02T09:06:58.107Z,15.6
2018-09-02T09:07:18.284Z,15.6
2018-09-02T09:07:38.738Z,15.7
2018-09-02T09:07:58.898Z,15.6
2018-09-02T09:08:19.868Z,15.6
2018-09-02T09:08:39.956Z,15.6
2018-09-02T09:09:00.199Z,15.7
2018-09-02T09:09:20.440Z,15.6
2018-09-02T09:09:40.828Z,15.7
2018-09-02T09:10:01.075Z,15.7
2018-09-02T09:10:21.291Z,15.7
2018-09-02T09:10:41.517Z,15.7
2018-09-02T09:11:01.811Z,15.7
2018-09-02T09:11:22.181Z,15.7
2018-09-02T09:11:42.394Z,15.7
2018-09-02T09:12:02.852Z,15.7
2018-09-02T09:12:23.232Z,15.7
2018-09-02T09:12:43.474Z,15.7
2018-09-02T09:13:03.776Z,15.7
2018-09-02T09:13:23.999Z,15.7
2018-09-02T09:13:44.222Z,15.7
2018-09-02T09:14:04.491Z,15.7
2018-09-02T09:14:24.696Z,15.8
2018-09-02T09:14:44.840Z,15.7
2018-09-02T09:15:05.147Z,15.8
2018-09-02T09:15:25.438Z,15.7
2018-09-02T09:15:45.818Z,15.7
2018-09-02T09:16:06.036Z,15.7
2018-09-02T09:16:26.224Z,15.7
2018-09-02T09:16:46.839Z,15.8
2018-09-02T09:17:07.109Z,15.7
2018-09-02T09:17:27.474Z,15.7
2018-09-02T09:17:47.768Z,15.8
2018-09-02T09:18:08.118Z,15.7
2018-09-02T09:18:28.695Z,15.8
2018-09-02T09:18:49.402Z,15.8
2018-09-02T09:19:10.437Z,15.8
2018-09-02T09:19:31.565Z,15.8
2018-09-02T09:19:52.332Z,15.9
2018-09-02T09:20:12.599Z,15.9
2018-09-02T09:20:32.799Z,15.9
2018-09-02T09:20:53.112Z,15.9
2018-09-02T09:21:13.329Z,15.9
2018-09-02T09:21:33.616Z,15.9
2018-09-02T09:21:53.780Z,15.9
2018-09-02T09:22:14.172Z,15.9
2018-09-02T09:22:34.425Z,15.9
2018-09-02T09:22:54.747Z,15.9
2018-09-02T09:23:15.034Z,15.9
2018-09-02T09:23:35.387Z,16
2018-09-02T09:23:55.682Z,15.9
2018-09-02T09:24:15.926Z,15.9
2018-09-02T09:24:36.274Z,16
2018-09-02T09:24:56.417Z,16
2018-09-02T09:25:16.674Z,16
2018-09-02T09:25:36.817Z,15.9
2018-09-02T09:25:57.007Z,16
2018-09-02T09:26:17.268Z,16
2018-09-02T09:26:37.990Z,16.1
2018-09-02T09:26:58.224Z,16.1
2018-09-02T09:27:18.471Z,16
2018-09-02T09:27:38.725Z,16
2018-09-02T09:27:58.942Z,16
2018-09-02T09:28:19.282Z,16
2018-09-02T09:28:39.461Z,16
2018-09-02T09:28:59.644Z,16
2018-09-02T09:29:19.803Z,16
2018-09-02T09:29:39.996Z,15.9
2018-09-02T09:30:00.310Z,16
2018-09-02T09:30:20.553Z,16
2018-09-02T09:30:40.877Z,16.1
2018-09-02T09:31:01.199Z,16.1
2018-09-02T09:31:21.414Z,16
2018-09-02T09:31:41.911Z,16
2018-09-02T09:32:02.191Z,16
2018-09-02T09:32:22.668Z,15.9
2018-09-02T09:32:43.169Z,16
2018-09-02T09:33:03.381Z,16.1
2018-09-02T09:33:23.701Z,16
2018-09-02T09:33:44.051Z,16
2018-09-02T09:34:04.254Z,16.1
2018-09-02T09:34:24.478Z,16
2018-09-02T09:34:44.808Z,15.9
2018-09-02T09:35:05.059Z,16.1
2018-09-02T09:35:25.362Z,16
2018-09-02T09:35:45.556Z,16
2018-09-02T09:36:05.773Z,16
2018-09-02T09:36:26.044Z,16
2018-09-02T09:36:46.236Z,16
2018-09-02T09:37:06.585Z,16
2018-09-02T09:37:26.825Z,16
2018-09-02T09:37:47.057Z,16
2018-09-02T09:38:07.254Z,16.1
2018-09-02T09:38:27.501Z,16.1
2018-09-02T09:38:47.764Z,16.1
2018-09-02T09:39:08.028Z,16
2018-09-02T09:39:28.278Z,16.1
2018-09-02T09:39:48.575Z,16.2
2018-09-02T09:40:08.884Z,16.2
2018-09-02T09:40:29.143Z,16.1
2018-09-02T09:40:49.438Z,16.2
2018-09-02T09:41:10.116Z,16.2
2018-09-02T09:41:30.505Z,16.2
2018-09-02T09:41:50.907Z,16.2
2018-09-02T09:42:11.142Z,16.1
2018-09-02T09:42:31.443Z,16.2
2018-09-02T09:42:51.668Z,16.2
2018-09-02T09:43:11.892Z,16.2
2018-09-02T09:43:32.103Z,16.2
2018-09-02T09:43:52.498Z,16.2
2018-09-02T09:44:12.715Z,16.1
2018-09-02T09:44:32.976Z,16.2
2018-09-02T09:44:53.269Z,16.2
2018-09-02T09:45:13.527Z,16.2
2018-09-02T09:45:33.722Z,16.2
2018-09-02T09:45:53.989Z,16.3
2018-09-02T09:46:14.455Z,16.3
2018-09-02T09:46:34.630Z,16.3
2018-09-02T09:46:54.870Z,16.3
2018-09-02T09:47:15.103Z,16.1
2018-09-02T09:47:35.260Z,16.3
2018-09-02T09:47:55.517Z,16.1
2018-09-02T09:48:15.836Z,16.3
2018-09-02T09:48:36.051Z,16.3
2018-09-02T09:48:56.319Z,16.2
2018-09-02T09:49:16.593Z,16.3
2018-09-02T09:49:36.889Z,16.3
2018-09-02T09:49:57.141Z,16.3
2018-09-02T09:50:17.449Z,16.3
2018-09-02T09:50:37.900Z,16.3
2018-09-02T09:50:58.181Z,16.3
2018-09-02T09:51:18.473Z,16.3
2018-09-02T09:51:38.861Z,16.4
2018-09-02T09:51:59.139Z,16.3
2018-09-02T09:52:19.335Z,16.3
2018-09-02T09:52:39.615Z,16.3
2018-09-02T09:52:59.848Z,16.4
2018-09-02T09:53:20.045Z,16.4
2018-09-02T09:53:40.299Z,16.4
2018-09-02T09:54:00.632Z,16.3
2018-09-02T09:54:20.950Z,16.3
2018-09-02T09:54:41.238Z,16.4
2018-09-02T09:55:01.524Z,16.4
2018-09-02T09:55:21.800Z,16.4
2018-09-02T09:55:42.341Z,16.4
2018-09-02T09:56:02.309Z,16.3
2018-09-02T09:56:22.547Z,16.5
2018-09-02T09:56:42.772Z,16.4
2018-09-02T09:57:03.183Z,16.4
2018-09-02T09:57:23.475Z,16.3
2018-09-02T09:57:43.692Z,16.4
2018-09-02T09:58:04.003Z,16.4
2018-09-02T09:58:24.305Z,16.4
2018-09-02T09:58:44.553Z,16.5
2018-09-02T09:59:04.825Z,16.5
2018-09-02T09:59:25.132Z,16.4
2018-09-02T09:59:45.397Z,16.5
2018-09-02T10:00:05.743Z,16.5
2018-09-02T10:00:25.989Z,16.5
2018-09-02T10:00:46.247Z,16.5
2018-09-02T10:01:06.460Z,16.5
2018-09-02T10:01:26.728Z,16.4
2018-09-02T10:01:46.925Z,16.5
2018-09-02T10:02:07.130Z,16.5
2018-09-02T10:02:27.500Z,16.5
2018-09-02T10:02:47.732Z,16.4
2018-09-02T10:03:07.998Z,16.5
2018-09-02T10:03:28.244Z,16.5
2018-09-02T10:03:48.775Z,16.6
2018-09-02T10:04:08.920Z,16.5
2018-09-02T10:04:29.235Z,16.5
2018-09-02T10:04:49.515Z,16.5
2018-09-02T10:05:09.789Z,16.6
2018-09-02T10:05:30.074Z,16.5
2018-09-02T10:05:50.337Z,16.5
2018-09-02T10:06:10.595Z,16.6
2018-09-02T10:06:30.998Z,16.5
2018-09-02T10:06:51.297Z,16.5
2018-09-02T10:07:11.546Z,16.5
2018-09-02T10:07:31.699Z,16.5
2018-09-02T10:07:51.928Z,16.5
2018-09-02T10:08:12.539Z,16.5
2018-09-02T10:08:32.800Z,16.5
2018-09-02T10:08:53.016Z,16.5
2018-09-02T10:09:13.342Z,16.6
2018-09-02T10:09:33.625Z,16.5
2018-09-02T10:09:54.100Z,16.5
2018-09-02T10:10:14.427Z,16.5
2018-09-02T10:10:34.796Z,16.5
2018-09-02T10:10:55.063Z,16.6
2018-09-02T10:11:15.387Z,16.6
2018-09-02T10:11:35.713Z,16.5
2018-09-02T10:11:56.310Z,16.5
2018-09-02T10:12:16.441Z,16.5
2018-09-02T10:12:36.736Z,16.5
2018-09-02T10:12:57.012Z,16.6
2018-09-02T10:13:17.363Z,16.5
2018-09-02T10:13:37.666Z,16.5
2018-09-02T10:13:57.934Z,16.6
2018-09-02T10:14:18.190Z,16.6
2018-09-02T10:14:38.530Z,16.5
2018-09-02T10:14:59.060Z,16.5
2018-09-02T10:15:19.334Z,16.5
2018-09-02T10:15:40.116Z,16.5
2018-09-02T10:16:00.504Z,16.5
2018-09-02T10:16:20.739Z,16.5
2018-09-02T10:16:41.175Z,16.6
2018-09-02T10:17:01.416Z,16.6
2018-09-02T10:17:21.883Z,16.6
2018-09-02T10:17:42.106Z,16.6
2018-09-02T10:18:02.469Z,16.6
2018-09-02T10:18:22.827Z,16.7
2018-09-02T10:18:43.140Z,16.7
2018-09-02T10:19:03.494Z,16.8
2018-09-02T10:19:23.778Z,16.7
2018-09-02T10:19:44.344Z,16.7
2018-09-02T10:20:04.751Z,16.8
2018-09-02T10:20:25.827Z,16.7
2018-09-02T10:20:46.327Z,16.7
2018-09-02T10:21:06.655Z,16.7
2018-09-02T10:21:27.142Z,16.7
2018-09-02T10:21:47.467Z,16.8
2018-09-02T10:22:07.668Z,16.7
2018-09-02T10:22:28.111Z,16.8
2018-09-02T10:22:48.497Z,16.7
2018-09-02T10:23:08.812Z,16.8
2018-09-02T10:23:29.146Z,16.8
2018-09-02T10:23:49.625Z,16.8
2018-09-02T10:24:10.213Z,16.8
2018-09-02T10:24:30.479Z,16.8
2018-09-02T10:24:50.799Z,16.8
2018-09-02T10:25:11.133Z,16.7
2018-09-02T10:25:32.572Z,16.8
2018-09-02T10:25:53.801Z,16.8
2018-09-02T10:26:14.056Z,16.8
2018-09-02T10:26:34.379Z,16.8
2018-09-02T10:26:54.803Z,16.8
2018-09-02T10:27:15.385Z,16.8
2018-09-02T10:27:36.421Z,16.8
2018-09-02T10:27:57.506Z,16.8
2018-09-02T10:28:17.979Z,16.9
2018-09-02T10:28:38.872Z,16.9
2018-09-02T10:28:59.177Z,16.8
2018-09-02T10:29:19.810Z,16.8
2018-09-02T10:29:40.133Z,16.9
2018-09-02T10:30:01.348Z,16.8
2018-09-02T10:30:21.714Z,16.9
2018-09-02T10:30:42.139Z,16.9
2018-09-02T10:31:02.938Z,16.8
2018-09-02T10:31:23.553Z,16.8
2018-09-02T10:31:44.780Z,16.8
2018-09-02T10:32:05.227Z,16.9
2018-09-02T10:32:25.974Z,16.9
2018-09-02T10:32:46.420Z,16.8
2018-09-02T10:33:07.032Z,16.9
2018-09-02T10:33:30.199Z,16.9
2018-09-02T10:33:50.397Z,16.9
2018-09-02T10:34:10.966Z,16.9
2018-09-02T10:34:31.262Z,16.9
2018-09-02T10:34:52.246Z,17
2018-09-02T10:35:12.682Z,17
2018-09-02T10:35:33.289Z,17
2018-09-02T10:35:54.170Z,17
2018-09-02T10:36:14.675Z,17
2018-09-02T10:36:34.996Z,16.9
2018-09-02T10:36:55.442Z,17
2018-09-02T10:37:15.702Z,16.9
2018-09-02T10:37:35.938Z,17
2018-09-02T10:37:56.241Z,17
2018-09-02T10:38:16.829Z,17
2018-09-02T10:38:37.116Z,17.1
2018-09-02T10:38:57.490Z,17.1
2018-09-02T10:39:18.254Z,17
2018-09-02T10:39:40.360Z,17
2018-09-02T10:40:00.939Z,17
2018-09-02T10:40:21.462Z,17.2
2018-09-02T10:40:41.919Z,17.2
2018-09-02T10:41:02.778Z,17.2
2018-09-02T15:31:05.658Z,18.3
2018-09-02T15:31:26.213Z,18.2
2018-09-02T15:31:46.369Z,18.3
2018-09-02T15:32:06.620Z,18.2
2018-09-02T15:32:26.810Z,18.3
2018-09-02T15:32:47.176Z,18.3
2018-09-02T15:33:07.447Z,18.3
2018-09-02T15:33:27.663Z,18.1
2018-09-02T15:33:47.890Z,18.2
2018-09-02T15:34:08.154Z,18.2
2018-09-02T15:34:28.501Z,18.2
2018-09-02T15:34:48.744Z,18.1
2018-09-02T15:35:09.015Z,18.3
2018-09-02T15:35:29.262Z,18.2
2018-09-02T15:35:49.810Z,18.3
2018-09-02T15:36:10.167Z,18.1
2018-09-02T15:36:30.429Z,18.2
2018-09-02T15:36:50.749Z,18.2
2018-09-02T15:37:10.973Z,18.2
2018-09-02T15:37:31.169Z,18.3
2018-09-02T15:37:51.553Z,18.2
2018-09-02T15:38:11.909Z,18.4
2018-09-02T15:38:32.213Z,18.4
2018-09-02T15:38:52.597Z,18.3
2018-09-02T15:39:12.908Z,18.3
2018-09-02T15:39:33.250Z,18.3
2018-09-02T15:39:53.474Z,18.4
2018-09-02T15:40:13.798Z,18.4
2018-09-02T15:40:34.147Z,18.3
2018-09-02T15:40:54.417Z,18.3
2018-09-02T15:41:14.920Z,18.3
2018-09-02T15:41:35.253Z,18.4
2018-09-02T15:41:55.564Z,18.4
2018-09-02T15:42:15.765Z,18.4
2018-09-02T15:42:36.014Z,18.4
2018-09-02T15:42:56.301Z,18.4
2018-09-02T15:43:16.671Z,18.3
2018-09-02T15:43:36.946Z,18.4
2018-09-02T15:43:57.174Z,18.5
2018-09-02T15:44:17.445Z,18.4
2018-09-02T15:44:37.741Z,18.4
2018-09-02T15:44:57.966Z,18.4
2018-09-02T15:45:18.167Z,18.5
2018-09-02T15:45:38.309Z,18.4
2018-09-02T15:45:58.486Z,18.3
2018-09-02T15:46:18.628Z,18.4
2018-09-02T15:46:38.847Z,18.3
2018-09-02T15:46:59.140Z,18.3
2018-09-02T15:47:19.454Z,18.3
2018-09-02T15:47:39.673Z,18.4
2018-09-02T15:47:59.993Z,18.3
2018-09-02T15:48:20.277Z,18.3
2018-09-02T15:48:40.485Z,18.5
2018-09-02T15:49:00.700Z,18.4
